Meteo Giornale » Osservazioni meteo Italia » Verona-Villafranca

ore: 08:20 - Osservazioni Meteo Verona-Villafranca
Lat. 45° 23' N Lon. 10° 52' E Alt. 67 metri s.l.m.

molto_nuvoloso Europe/Rome

4 °C

Molto Nuvoloso

Temp. 24 Ore

-2 °C

10 °C

Nord

5.5 Km/h

Dew point 0 °C

Umidità 75 %

Visibilità  10 Km

Il sole sorge alle ore 07:49

Il sole tramonta alle ore 17:04

Data e Ora Cielo e Fenomeni T °C DP °C Um. % Pres. hPa Vis. km Vento km/h
Oggi h: 08:20 molto_nuvoloso Molto Nuvoloso 4 0 75 1015 10 N 5.5
Oggi h: 07:50 molto_nuvoloso Molto Nuvoloso 3 1 86 1015 10 N 3.7
Oggi h: 07:20 molto_nuvoloso Molto Nuvoloso 4 1 80 1015 10 N 5.5
Oggi h: 06:50 molto_nuvoloso Molto Nuvoloso 3 0 80 1015 10 N/NO 7.4
Oggi h: 06:20 molto_nuvoloso Molto Nuvoloso 3 0 80 1015 10 N 5.5
Oggi h: 05:50 molto_nuvoloso Molto Nuvoloso 3 0 80 1016 10 N 1.8
Oggi h: 05:20 molto_nuvoloso Molto Nuvoloso 3 0 80 1016 10 N 1.8
Oggi h: 04:50 molto_nuvoloso Molto Nuvoloso 3 0 80 1016 10 N 1.8
Oggi h: 04:20 molto_nuvoloso Molto Nuvoloso 3 0 80 1016 10 N 170.2
Oggi h: 03:50 molto_nuvoloso Molto Nuvoloso 4 0 75 1016 10 N 5.5
Oggi h: 03:20 molto_nuvoloso Molto Nuvoloso 3 1 86 1016 10 N 5.5
Oggi h: 02:50 molto_nuvoloso Molto Nuvoloso 3 1 86 1017 10 N 5.5
Oggi h: 02:20 molto_nuvoloso Molto Nuvoloso 4 1 80 1017 10 N 3.7
Oggi h: 01:50 molto_nuvoloso Molto Nuvoloso 4 1 80 1017 10 N 5.5
Oggi h: 01:20 molto_nuvoloso Molto Nuvoloso 4 1 80 1017 10 N 5.5
Oggi h: 00:50 molto_nuvoloso Molto Nuvoloso 3 0 80 1018 10 N 5.5
Oggi h: 00:20 molto_nuvoloso Molto Nuvoloso 3 0 80 1018 10 N 5.5
Ieri h: 23:50 molto_nuvoloso Molto Nuvoloso 3 -0 80 1018 10 N 5.5
Ieri h: 23:20 molto_nuvoloso Molto Nuvoloso 3 -0 80 1018 10 N 3.7
Ieri h: 22:50 molto_nuvoloso Molto Nuvoloso 3 -0 80 1018 10 N 3.7
Ieri h: 22:20 nuvoloso Nuvoloso 3 -0 80 1018 10 N 5.5
Ieri h: 21:50 nuvoloso Nuvoloso 2 -1 80 1018 10 N 1.8
Ieri h: 21:20 poco_nuvoloso Poco Nuvoloso 2 -1 80 1018 10 N 3.7
Ieri h: 20:50 poco_nuvoloso Poco Nuvoloso 2 -1 80 1018 10 N 5.5
Ieri h: 20:20 poco_nuvoloso Poco Nuvoloso 3 -0 80 1018 10 N 3.7
Ieri h: 19:50 nuvoloso Nuvoloso 5 -0 70 1018 10 N 5.5
Ieri h: 19:20 molto_nuvoloso Molto Nuvoloso 6 0 65 1018 10 N 5.5
Ieri h: 18:50 molto_nuvoloso Molto Nuvoloso 6 1 70 1018 10 E 9.3
Ieri h: 18:20 nuvoloso Nuvoloso 7 1 65 1018 10 E 7.4
Ieri h: 17:50 nuvoloso Nuvoloso 7 2 70 1018 10 N 5.5
Ieri h: 17:20 nuvoloso Nuvoloso 8 2 65 1018 8 E/SE 7.4
Ieri h: 16:50 nuvoloso Nuvoloso 9 2 61 1017 10 N 5.5
Ieri h: 16:20 poco_nuvoloso Poco Nuvoloso 10 2 57 1017 10 N 5.5
Ieri h: 15:50 poco_nuvoloso Poco Nuvoloso 10 1 53 1017 10 N 5.5
Ieri h: 15:20 poco_nuvoloso Poco Nuvoloso 10 1 53 1017 10 S 7.4
Ieri h: 14:50 sereno Sereno 10 -0 49 1018 10 S 7.4
Ieri h: 14:20 sereno Sereno 10 0 49 1018 10 S/SE 7.4
Ieri h: 13:50 sereno Sereno 9 0 53 1018 10 N 5.5
Ieri h: 13:20 sereno Sereno 8 -1 52 1018 10 N 5.5
Ieri h: 12:50 sereno Sereno 7 -1 56 1019 10 N 3.7
Ieri h: 12:20 sereno Sereno 6 -1 60 1019 10 N 3.7
Ieri h: 11:50 sereno Sereno 6 -1 60 1020 10 N 5.5
Ieri h: 11:20 sereno Sereno 5 -1 65 1020 10 N 5.5
Ieri h: 10:20 sereno Sereno 4 -2 64 1020 10 N 3.7
Ieri h: 09:50 sereno Sereno 2 -3 69 1020 10 N 1.8
Ieri h: 09:20 sereno Sereno 1 -4 69 1020 10 N 1.8
Ieri h: 08:50 sereno Sereno -2 -6 73 1019 10 N 3.7